createdAt,value
2022-11-27T00:01:36.226Z,3.40
2022-11-27T00:04:04.508Z,3.07
2022-11-27T00:06:34.985Z,3.30
2022-11-27T00:09:05.619Z,3.00
2022-11-27T00:11:34.390Z,2.67
2022-11-27T00:14:03.205Z,3.17
2022-11-27T00:16:31.575Z,2.60
2022-11-27T00:19:00.120Z,2.73
2022-11-27T00:21:30.525Z,3.10
2022-11-27T00:24:02.067Z,3.13
2022-11-27T00:26:37.243Z,2.87
2022-11-27T00:29:06.624Z,2.83
2022-11-27T00:31:37.345Z,3.03
2022-11-27T00:34:09.105Z,2.67
2022-11-27T00:36:38.011Z,2.87
2022-11-27T00:39:10.619Z,2.80
2022-11-27T00:41:39.032Z,2.77
2022-11-27T00:44:07.433Z,2.93
2022-11-27T00:46:36.657Z,2.90
2022-11-27T00:49:07.059Z,2.80
2022-11-27T00:51:35.498Z,2.77
2022-11-27T00:54:03.780Z,2.63
2022-11-27T00:56:35.925Z,2.50
2022-11-27T00:59:05.709Z,2.40
2022-11-27T01:01:35.481Z,2.90
2022-11-27T01:04:05.252Z,2.77
2022-11-27T01:06:33.441Z,2.80
2022-11-27T01:09:02.250Z,2.93
2022-11-27T01:11:32.750Z,3.30
2022-11-27T01:14:04.407Z,2.80
2022-11-27T01:16:34.499Z,2.83
2022-11-27T01:19:04.361Z,2.90
2022-11-27T01:21:34.381Z,2.93
2022-11-27T01:24:03.529Z,2.63
2022-11-27T01:26:32.241Z,2.77
2022-11-27T01:29:02.292Z,2.77
2022-11-27T01:31:33.460Z,2.67
2022-11-27T01:34:03.219Z,2.67
2022-11-27T01:36:32.481Z,2.20
2022-11-27T01:39:01.014Z,2.83
2022-11-27T01:41:31.188Z,3.50
2022-11-27T01:44:01.360Z,2.37
2022-11-27T01:46:36.244Z,2.87
2022-11-27T01:49:23.421Z,2.90
2022-11-27T01:51:56.155Z,2.30
2022-11-27T01:54:27.247Z,3.20
2022-11-27T01:56:59.970Z,2.60
2022-11-27T01:59:28.273Z,2.83
2022-11-27T02:01:58.019Z,2.87
2022-11-27T02:04:26.331Z,2.20
2022-11-27T02:06:57.335Z,2.30
2022-11-27T02:09:25.771Z,2.90
2022-11-27T02:12:00.993Z,2.13
2022-11-27T02:14:37.346Z,2.50
2022-11-27T02:17:14.556Z,3.00
2022-11-27T02:20:03.921Z,3.17
2022-11-27T02:22:48.263Z,2.40
2022-11-27T02:25:29.922Z,2.80
2022-11-27T02:28:22.738Z,2.90
2022-11-27T02:30:58.094Z,3.13
2022-11-27T02:33:27.122Z,2.97
2022-11-27T02:36:01.036Z,2.73
2022-11-27T02:38:33.112Z,2.70
2022-11-27T02:41:06.578Z,2.87
2022-11-27T02:43:38.313Z,2.83
2022-11-27T02:46:10.853Z,3.20
2022-11-27T02:48:44.638Z,3.57
2022-11-27T02:51:16.187Z,3.23
2022-11-27T02:53:56.075Z,3.17
2022-11-27T02:56:27.668Z,3.27
2022-11-27T02:59:00.813Z,3.53
2022-11-27T03:01:34.814Z,3.57
2022-11-27T03:04:07.429Z,4.53
2022-11-27T03:06:41.596Z,3.53
2022-11-27T03:09:14.964Z,3.93
2022-11-27T03:11:43.243Z,3.97
2022-11-27T03:14:13.182Z,4.30
2022-11-27T03:16:50.495Z,4.17
2022-11-27T03:19:23.601Z,3.97
2022-11-27T03:21:55.230Z,4.57
2022-11-27T03:24:24.094Z,4.13
2022-11-27T03:26:52.583Z,4.33
2022-11-27T03:29:24.814Z,4.27
2022-11-27T03:31:54.450Z,4.03
2022-11-27T03:34:22.819Z,4.37
2022-11-27T03:36:51.210Z,4.33
2022-11-27T03:39:22.351Z,4.27
2022-11-27T03:42:02.415Z,4.87
2022-11-27T03:44:37.027Z,5.00
2022-11-27T03:47:13.584Z,4.40
2022-11-27T03:49:56.657Z,4.97
2022-11-27T03:52:32.507Z,4.63
2022-11-27T03:55:09.279Z,5.03
2022-11-27T03:57:45.374Z,4.60
2022-11-27T04:00:15.272Z,5.20
2022-11-27T04:02:47.322Z,5.70
2022-11-27T04:05:16.035Z,5.00
2022-11-27T04:07:44.235Z,5.37
2022-11-27T04:10:13.858Z,5.47
2022-11-27T04:12:41.838Z,4.97
2022-11-27T04:15:10.703Z,5.03
2022-11-27T04:17:38.716Z,5.43
2022-11-27T04:20:10.151Z,5.77
2022-11-27T04:22:38.127Z,5.80
2022-11-27T04:25:06.820Z,5.83
2022-11-27T04:27:34.766Z,5.23
2022-11-27T04:30:02.710Z,4.80
2022-11-27T04:32:30.821Z,6.20
2022-11-27T04:34:58.828Z,5.27
2022-11-27T04:37:28.443Z,6.03
2022-11-27T04:39:56.572Z,5.23
2022-11-27T04:42:24.589Z,6.20
2022-11-27T04:44:52.846Z,6.20
2022-11-27T04:47:20.889Z,5.70
2022-11-27T04:49:49.262Z,5.77
2022-11-27T04:52:17.264Z,5.83
2022-11-27T04:54:46.599Z,5.70
2022-11-27T04:57:15.091Z,5.97
2022-11-27T04:59:43.271Z,5.37
2022-11-27T05:02:11.321Z,5.47
2022-11-27T05:04:39.529Z,5.67
2022-11-27T05:07:08.279Z,5.90
2022-11-27T05:09:36.267Z,5.80
2022-11-27T05:12:06.260Z,5.63
2022-11-27T05:14:34.636Z,5.60
2022-11-27T05:17:03.022Z,5.83
2022-11-27T05:19:31.905Z,6.30
2022-11-27T05:22:00.011Z,6.00
2022-11-27T05:24:30.017Z,5.80
2022-11-27T05:26:58.327Z,5.70
2022-11-27T05:29:28.048Z,5.57
2022-11-27T05:31:56.467Z,6.17
2022-11-27T05:34:26.722Z,6.03
2022-11-27T05:36:55.048Z,6.20
2022-11-27T05:39:23.814Z,5.70
2022-11-27T05:41:51.829Z,6.87
2022-11-27T05:44:19.856Z,5.40
2022-11-27T05:46:49.210Z,5.53
2022-11-27T05:49:17.464Z,5.80
2022-11-27T05:51:50.999Z,5.50
2022-11-27T05:54:19.885Z,5.83
2022-11-27T05:56:47.840Z,5.53
2022-11-27T05:59:16.222Z,5.57
2022-11-27T06:01:44.528Z,5.33
2022-11-27T06:08:16.890Z,5.43
2022-11-27T06:10:44.884Z,5.93
2022-11-27T06:13:12.927Z,5.10
2022-11-27T06:15:41.016Z,5.70
2022-11-27T06:18:09.388Z,5.87
2022-11-27T06:20:43.386Z,5.77
2022-11-27T06:23:15.986Z,5.30
2022-11-27T06:25:44.080Z,4.97
2022-11-27T06:28:12.254Z,5.17
2022-11-27T06:30:40.359Z,5.40
2022-11-27T06:33:08.459Z,5.47
2022-11-27T06:35:39.730Z,5.20
2022-11-27T06:38:07.883Z,5.30
2022-11-27T06:40:37.528Z,5.30
2022-11-27T06:43:05.853Z,4.93
2022-11-27T06:45:34.181Z,5.17
2022-11-27T06:48:02.555Z,5.47
2022-11-27T06:50:30.643Z,5.17
2022-11-27T06:52:58.948Z,5.33
2022-11-27T06:55:28.806Z,5.47
2022-11-27T06:57:58.463Z,5.17
2022-11-27T07:00:26.612Z,6.00
2022-11-27T07:02:55.867Z,4.73
2022-11-27T07:05:25.631Z,5.53
2022-11-27T07:07:54.093Z,5.57
2022-11-27T07:10:22.689Z,4.97
2022-11-27T07:12:51.114Z,4.90
2022-11-27T07:15:20.737Z,5.13
2022-11-27T07:17:49.046Z,4.83
2022-11-27T07:20:20.767Z,4.67
2022-11-27T07:22:49.253Z,4.43
2022-11-27T07:25:17.762Z,4.40
2022-11-27T07:31:20.348Z,5.23
2022-11-27T07:33:49.892Z,4.70
2022-11-27T07:40:07.590Z,4.40
2022-11-27T07:43:21.752Z,4.87
2022-11-27T07:55:35.494Z,4.37
2022-11-27T07:58:06.942Z,4.90
2022-11-27T08:00:35.760Z,4.03
2022-11-27T08:03:03.954Z,4.50
2022-11-27T08:05:35.128Z,4.23
2022-11-27T08:08:04.458Z,4.73
2022-11-27T08:10:36.975Z,4.80
2022-11-27T08:13:05.478Z,4.20
2022-11-27T08:15:34.448Z,4.57
2022-11-27T08:18:02.605Z,3.80
2022-11-27T08:20:31.284Z,4.13
2022-11-27T08:23:02.977Z,4.10
2022-11-27T08:25:33.634Z,4.10
2022-11-27T08:28:02.037Z,4.47
2022-11-27T08:30:30.434Z,6.87
2022-11-27T08:32:58.742Z,8.67
2022-11-27T08:35:27.063Z,6.60
2022-11-27T08:37:55.384Z,3.87
2022-11-27T08:40:23.549Z,3.80
2022-11-27T08:42:53.123Z,3.63
2022-11-27T08:45:21.398Z,3.77
2022-11-27T08:47:49.679Z,3.40
2022-11-27T08:50:18.068Z,3.93
2022-11-27T08:52:46.205Z,3.80
2022-11-27T08:55:14.525Z,3.93
2022-11-27T08:57:42.625Z,3.30
2022-11-27T09:00:13.720Z,3.67
2022-11-27T09:02:41.875Z,3.20
2022-11-27T09:05:10.509Z,3.17
2022-11-27T09:07:38.703Z,3.40
2022-11-27T09:10:07.927Z,3.70
2022-11-27T09:12:40.521Z,3.63
2022-11-27T09:15:13.475Z,4.30
2022-11-27T09:17:41.588Z,4.03
2022-11-27T09:20:10.489Z,3.80
2022-11-27T09:22:38.815Z,3.20
2022-11-27T09:25:07.513Z,3.80
2022-11-27T09:27:39.172Z,3.57
2022-11-27T09:30:10.079Z,4.43
2022-11-27T09:32:40.275Z,3.80
2022-11-27T09:35:09.237Z,3.60
2022-11-27T09:37:37.741Z,3.53
2022-11-27T09:40:07.405Z,3.60
2022-11-27T09:42:43.849Z,3.63
2022-11-27T09:45:17.490Z,3.23
2022-11-27T09:47:52.711Z,4.03
2022-11-27T09:50:24.967Z,3.30
2022-11-27T09:52:56.432Z,3.30
2022-11-27T09:55:27.429Z,3.70
2022-11-27T09:58:00.715Z,3.90
2022-11-27T10:00:29.249Z,3.40
2022-11-27T10:02:58.845Z,4.40
2022-11-27T10:05:35.151Z,5.03
2022-11-27T10:08:24.450Z,4.10
2022-11-27T10:11:04.012Z,4.00
2022-11-27T10:13:58.326Z,3.13
2022-11-27T10:16:42.853Z,3.67
2022-11-27T10:19:28.454Z,3.90
2022-11-27T10:22:01.108Z,3.97
2022-11-27T10:24:37.148Z,3.50
2022-11-27T10:27:15.679Z,3.60
2022-11-27T10:29:50.280Z,3.63
2022-11-27T10:32:53.678Z,3.50
2022-11-27T10:35:17.347Z,3.37
2022-11-27T10:37:50.158Z,4.00
2022-11-27T10:40:24.818Z,3.77
2022-11-27T10:43:01.912Z,3.47
2022-11-27T10:45:40.373Z,3.77
2022-11-27T10:48:09.007Z,3.77
2022-11-27T10:50:38.573Z,4.07
2022-11-27T10:53:09.824Z,3.63
2022-11-27T10:55:55.660Z,3.60
2022-11-27T10:58:29.568Z,3.93
2022-11-27T11:01:06.906Z,4.50
2022-11-27T11:03:36.095Z,4.40
2022-11-27T11:06:23.954Z,4.23
2022-11-27T11:09:04.000Z,3.97
2022-11-27T11:11:32.455Z,4.07
2022-11-27T11:14:16.160Z,3.90
2022-11-27T11:16:45.741Z,3.50
2022-11-27T11:19:24.814Z,4.03
2022-11-27T11:21:54.591Z,3.77
2022-11-27T11:24:28.447Z,4.40
2022-11-27T11:27:00.252Z,5.13
2022-11-27T11:29:32.739Z,4.70
2022-11-27T11:32:09.540Z,4.53
2022-11-27T11:34:44.221Z,3.73
2022-11-27T11:37:28.947Z,3.90
2022-11-27T11:39:59.667Z,3.90
2022-11-27T11:42:29.604Z,4.20
2022-11-27T11:45:04.779Z,3.70
2022-11-27T11:47:33.338Z,3.90
2022-11-27T11:50:04.908Z,3.73
2022-11-27T11:52:50.054Z,4.27
2022-11-27T11:55:21.738Z,3.63
2022-11-27T11:58:21.515Z,3.90
2022-11-27T12:01:19.296Z,4.17
2022-11-27T12:03:53.652Z,3.90
2022-11-27T12:06:38.617Z,3.47
2022-11-27T12:09:27.510Z,3.60
2022-11-27T12:12:02.421Z,3.80
2022-11-27T12:14:42.506Z,4.60
2022-11-27T12:17:25.804Z,4.00
2022-11-27T12:20:08.006Z,3.97
2022-11-27T12:22:53.762Z,3.67
2022-11-27T12:25:33.631Z,3.27
2022-11-27T12:28:15.928Z,3.63
2022-11-27T12:30:53.129Z,3.40
2022-11-27T12:33:37.269Z,3.70
2022-11-27T12:36:17.109Z,3.67
2022-11-27T12:39:00.128Z,3.20
2022-11-27T12:41:46.033Z,3.20
2022-11-27T12:44:23.606Z,4.27
2022-11-27T12:46:59.995Z,3.47
2022-11-27T12:49:35.557Z,3.37
2022-11-27T12:52:12.763Z,3.70
2022-11-27T12:54:47.745Z,3.20
2022-11-27T12:57:28.097Z,3.83
2022-11-27T13:00:02.037Z,3.47
2022-11-27T13:02:36.316Z,3.40
2022-11-27T13:05:08.803Z,3.40
2022-11-27T13:07:44.824Z,3.77
2022-11-27T13:10:21.949Z,3.80
2022-11-27T13:13:01.055Z,3.50
2022-11-27T13:15:34.770Z,3.80
2022-11-27T13:18:16.588Z,3.80
2022-11-27T13:20:51.997Z,3.67
2022-11-27T13:23:21.401Z,3.77
2022-11-27T13:25:54.184Z,3.47
2022-11-27T13:28:35.031Z,2.93
2022-11-27T13:31:05.299Z,3.80
2022-11-27T13:33:39.092Z,3.70
2022-11-27T13:36:09.383Z,3.33
2022-11-27T13:38:42.093Z,2.80
2022-11-27T13:41:21.024Z,3.43
2022-11-27T13:43:52.779Z,2.93
2022-11-27T13:46:25.206Z,3.27
2022-11-27T13:48:57.647Z,3.10
2022-11-27T13:51:29.307Z,2.93
2022-11-27T13:54:09.226Z,5.07
2022-11-27T13:56:37.941Z,3.60
2022-11-27T13:59:22.968Z,3.77
2022-11-27T14:01:59.235Z,4.20
2022-11-27T14:04:28.546Z,3.97
2022-11-27T14:07:03.182Z,3.23
2022-11-27T14:09:37.969Z,3.13
2022-11-27T14:12:17.537Z,3.03
2022-11-27T14:15:00.168Z,4.50
2022-11-27T14:17:36.145Z,3.87
2022-11-27T14:20:20.163Z,3.57
2022-11-27T14:25:38.897Z,3.33
2022-11-27T14:28:15.982Z,3.57
2022-11-27T14:30:49.198Z,3.20
2022-11-27T14:33:20.633Z,3.80
2022-11-27T14:35:53.928Z,3.80
2022-11-27T14:38:22.764Z,4.07
2022-11-27T14:40:53.439Z,3.90
2022-11-27T14:43:29.245Z,3.90
2022-11-27T14:46:01.901Z,4.00
2022-11-27T14:48:44.802Z,3.53
2022-11-27T14:51:18.185Z,3.67
2022-11-27T14:53:47.977Z,3.60
2022-11-27T14:56:17.248Z,3.20
2022-11-27T14:58:51.322Z,3.37
2022-11-27T15:01:27.536Z,3.60
2022-11-27T15:04:00.095Z,3.87
2022-11-27T15:06:32.607Z,3.63
2022-11-27T15:09:29.649Z,6.80
2022-11-27T15:11:56.889Z,2.83
2022-11-27T15:14:26.926Z,2.87
2022-11-27T15:21:58.032Z,3.80
2022-11-27T15:25:20.405Z,3.13
2022-11-27T15:27:55.978Z,3.13
2022-11-27T15:30:24.715Z,3.43
2022-11-27T15:32:56.412Z,3.70
2022-11-27T15:35:28.819Z,3.70
2022-11-27T15:38:04.385Z,4.33
2022-11-27T15:40:36.109Z,4.50
2022-11-27T15:43:07.654Z,2.77
2022-11-27T15:45:37.573Z,3.37
2022-11-27T15:48:15.190Z,3.67
2022-11-27T15:50:48.317Z,3.40
2022-11-27T15:53:20.166Z,3.00
2022-11-27T15:55:48.414Z,3.00
2022-11-27T15:58:17.227Z,3.20
2022-11-27T16:00:45.423Z,2.83
2022-11-27T16:03:15.672Z,2.93
2022-11-27T16:05:43.939Z,2.83
2022-11-27T16:08:12.324Z,2.57
2022-11-27T16:10:44.334Z,2.60
2022-11-27T16:13:12.585Z,3.33
2022-11-27T16:15:40.851Z,3.33
2022-11-27T16:18:08.899Z,3.10
2022-11-27T16:20:38.488Z,3.37
2022-11-27T16:23:06.560Z,2.97
2022-11-27T16:25:34.794Z,3.00
2022-11-27T16:28:03.495Z,3.00
2022-11-27T16:30:31.704Z,3.20
2022-11-27T16:32:59.853Z,3.60
2022-11-27T16:35:28.156Z,3.10
2022-11-27T16:37:57.860Z,4.67
2022-11-27T16:40:27.386Z,3.60
2022-11-27T16:42:55.986Z,3.53
2022-11-27T16:45:24.575Z,3.60
2022-11-27T16:47:54.788Z,3.50
2022-11-27T16:51:16.631Z,4.00
2022-11-27T16:53:50.177Z,3.27
2022-11-27T16:56:23.858Z,3.70
2022-11-27T16:59:07.019Z,3.17
2022-11-27T17:01:36.457Z,3.13
2022-11-27T17:07:01.384Z,3.50
2022-11-27T17:09:31.409Z,3.50
2022-11-27T17:11:59.705Z,3.27
2022-11-27T17:14:53.453Z,3.30
2022-11-27T17:17:35.516Z,3.80
2022-11-27T17:20:09.746Z,3.00
2022-11-27T17:22:38.703Z,3.47
2022-11-27T17:25:11.214Z,3.37
2022-11-27T17:27:39.873Z,3.53
2022-11-27T17:30:10.557Z,3.53
2022-11-27T17:32:40.007Z,3.17
2022-11-27T17:35:08.733Z,3.47
2022-11-27T17:37:37.254Z,3.50
2022-11-27T17:40:06.175Z,3.37
2022-11-27T17:42:36.025Z,3.37
2022-11-27T17:45:04.458Z,3.53
2022-11-27T17:47:34.168Z,3.43
2022-11-27T17:50:02.874Z,3.10
2022-11-27T17:52:32.159Z,3.67
2022-11-27T17:55:00.289Z,3.47
2022-11-27T17:57:28.757Z,3.20
2022-11-27T17:59:59.264Z,3.30
2022-11-27T18:02:27.937Z,3.83
2022-11-27T18:04:56.157Z,3.50
2022-11-27T18:07:25.874Z,3.27
2022-11-27T18:09:54.485Z,3.07
2022-11-27T18:12:22.640Z,3.37
2022-11-27T18:14:55.422Z,3.60
2022-11-27T18:17:29.358Z,3.30
2022-11-27T18:19:59.190Z,3.40
2022-11-27T18:22:27.644Z,3.40
2022-11-27T18:24:57.645Z,3.50
2022-11-27T18:27:25.963Z,3.30
2022-11-27T18:29:54.459Z,3.20
2022-11-27T18:32:23.128Z,3.50
2022-11-27T18:34:56.481Z,3.00
2022-11-27T18:37:45.923Z,3.40
2022-11-27T18:40:14.820Z,3.10
2022-11-27T18:42:42.950Z,3.10
2022-11-27T18:45:32.923Z,4.00
2022-11-27T18:48:01.720Z,3.43
2022-11-27T18:50:31.433Z,3.33
2022-11-27T18:52:59.819Z,3.10
2022-11-27T18:55:28.736Z,3.17
2022-11-27T18:57:57.167Z,3.40
2022-11-27T19:00:26.036Z,3.00
2022-11-27T19:02:54.650Z,3.10
2022-11-27T19:05:23.440Z,3.27
2022-11-27T19:07:53.153Z,3.30
2022-11-27T19:10:21.520Z,3.20
2022-11-27T19:12:59.923Z,3.27
2022-11-27T19:15:28.439Z,3.57
2022-11-27T19:17:56.720Z,3.70
2022-11-27T19:20:24.836Z,3.27
2022-11-27T19:22:54.496Z,3.30
2022-11-27T19:25:22.945Z,3.73
2022-11-27T19:27:53.618Z,3.33
2022-11-27T19:30:22.007Z,3.50
2022-11-27T19:32:50.158Z,3.93
2022-11-27T19:35:24.459Z,3.37
2022-11-27T19:37:55.504Z,3.33
2022-11-27T19:40:24.548Z,3.83
2022-11-27T19:42:57.961Z,3.47
2022-11-27T19:45:28.966Z,3.57
2022-11-27T19:47:57.232Z,3.33
2022-11-27T19:53:23.914Z,3.50
2022-11-27T19:55:55.095Z,3.77
2022-11-27T19:58:34.022Z,3.83
2022-11-27T20:01:07.276Z,3.33
2022-11-27T20:03:35.613Z,3.40
2022-11-27T20:06:05.628Z,3.50
2022-11-27T20:08:35.572Z,3.67
2022-11-27T20:11:05.747Z,3.50
2022-11-27T20:13:34.495Z,3.40
2022-11-27T20:16:02.862Z,3.27
2022-11-27T20:18:31.050Z,3.73
2022-11-27T20:21:06.017Z,3.77
2022-11-27T20:23:35.654Z,3.57
2022-11-27T20:26:05.685Z,3.77
2022-11-27T20:28:34.109Z,3.83
2022-11-27T20:31:03.965Z,3.80
2022-11-27T20:33:33.534Z,3.80
2022-11-27T20:36:02.198Z,3.40
2022-11-27T20:38:30.354Z,3.70
2022-11-27T20:41:00.587Z,3.70
2022-11-27T20:43:29.037Z,3.70
2022-11-27T20:45:57.262Z,3.97
2022-11-27T20:48:25.467Z,3.67
2022-11-27T20:50:53.816Z,3.80
2022-11-27T20:53:22.190Z,3.70
2022-11-27T20:55:50.643Z,3.83
2022-11-27T20:58:21.513Z,4.30
2022-11-27T21:00:50.842Z,3.60
2022-11-27T21:03:19.562Z,4.07
2022-11-27T21:06:07.030Z,3.50
2022-11-27T21:08:38.182Z,3.60
2022-11-27T21:11:13.949Z,4.27
2022-11-27T21:13:44.206Z,3.80
2022-11-27T21:16:14.265Z,3.70
2022-11-27T21:18:45.216Z,3.70
2022-11-27T21:21:15.253Z,3.80
2022-11-27T21:23:45.646Z,3.83
2022-11-27T21:26:16.215Z,4.27
2022-11-27T21:28:46.585Z,4.13
2022-11-27T21:31:21.780Z,3.93
2022-11-27T21:33:56.760Z,4.20
2022-11-27T21:36:29.450Z,3.93
2022-11-27T21:39:00.736Z,3.93
2022-11-27T21:41:33.791Z,3.87
2022-11-27T21:44:04.511Z,4.37
2022-11-27T21:46:33.902Z,4.30
2022-11-27T21:49:06.061Z,4.10
2022-11-27T21:51:34.566Z,3.73
2022-11-27T21:54:07.824Z,4.20
2022-11-27T21:56:38.625Z,4.13
2022-11-27T21:59:10.248Z,4.27
2022-11-27T22:01:38.693Z,4.57
2022-11-27T22:04:07.365Z,4.63
2022-11-27T22:06:38.609Z,4.80
2022-11-27T22:09:11.868Z,3.70
2022-11-27T22:11:43.227Z,4.37
2022-11-27T22:14:13.425Z,4.53
2022-11-27T22:16:45.276Z,4.63
2022-11-27T22:19:15.321Z,4.43
2022-11-27T22:21:45.142Z,4.50
2022-11-27T22:24:18.910Z,4.53
2022-11-27T22:26:49.778Z,5.20
2022-11-27T22:29:20.060Z,5.10
2022-11-27T22:31:48.077Z,5.40
2022-11-27T22:34:21.872Z,4.70
2022-11-27T22:36:50.088Z,5.17
2022-11-27T22:39:18.420Z,4.83
2022-11-27T22:41:47.152Z,4.60
2022-11-27T22:44:18.711Z,4.97
2022-11-27T22:46:51.695Z,5.10
2022-11-27T22:49:20.186Z,4.97
2022-11-27T22:51:48.359Z,4.33
2022-11-27T22:54:18.008Z,5.03
2022-11-27T22:56:47.455Z,4.80
2022-11-27T22:59:33.734Z,5.10
2022-11-27T23:02:05.077Z,5.13
2022-11-27T23:04:33.601Z,4.80
2022-11-27T23:07:01.710Z,4.80
2022-11-27T23:09:30.145Z,4.60
2022-11-27T23:11:58.111Z,4.90
2022-11-27T23:14:27.024Z,4.80
2022-11-27T23:16:55.078Z,4.80
2022-11-27T23:19:24.729Z,4.50
2022-11-27T23:21:52.575Z,5.17
2022-11-27T23:24:20.900Z,4.87
2022-11-27T23:26:49.030Z,4.63
2022-11-27T23:29:16.856Z,4.90
2022-11-27T23:31:44.750Z,5.10
2022-11-27T23:34:15.984Z,5.03
2022-11-27T23:36:45.858Z,4.70
2022-11-27T23:39:14.897Z,5.50
2022-11-27T23:41:43.531Z,4.90
2022-11-27T23:44:11.736Z,4.93
2022-11-27T23:46:39.771Z,4.87
2022-11-27T23:49:08.284Z,5.40
2022-11-27T23:51:36.499Z,4.97
2022-11-27T23:54:08.408Z,5.17
2022-11-27T23:56:36.644Z,4.60
2022-11-27T23:59:05.331Z,5.13
